createdAt,value
2022-12-12T00:07:16.465Z,-0.86
2022-12-12T00:17:43.853Z,-1.04
2022-12-12T00:28:11.970Z,-1.09
2022-12-12T00:38:39.462Z,-1.25
2022-12-12T00:49:06.999Z,-1.30
2022-12-12T00:59:34.435Z,-1.23
2022-12-12T01:10:01.861Z,-1.14
2022-12-12T01:20:30.377Z,-1.10
2022-12-12T01:30:57.912Z,-1.16
2022-12-12T01:41:25.843Z,-1.13
2022-12-12T01:51:56.850Z,-1.06
2022-12-12T02:02:24.512Z,-1.00
2022-12-12T02:12:52.816Z,-1.14
2022-12-12T02:23:45.159Z,-1.20
2022-12-12T02:34:19.963Z,-1.21
2022-12-12T02:44:55.828Z,-1.13
2022-12-12T02:55:24.725Z,-1.08
2022-12-12T03:06:27.839Z,-1.01
2022-12-12T03:17:07.155Z,-1.02
2022-12-12T03:27:41.102Z,-1.14
2022-12-12T03:38:14.307Z,-1.28
2022-12-12T03:48:46.361Z,-1.32
2022-12-12T03:59:16.207Z,-1.26
2022-12-12T04:10:01.867Z,-1.25
2022-12-12T04:20:58.748Z,-1.25
2022-12-12T04:31:30.219Z,-1.18
2022-12-12T04:41:58.707Z,-1.16
2022-12-12T04:52:27.798Z,-1.27
2022-12-12T05:03:02.272Z,-1.26
2022-12-12T05:13:34.201Z,-1.26
2022-12-12T05:24:02.765Z,-1.24
2022-12-12T05:34:28.740Z,-1.09
2022-12-12T05:44:56.141Z,-0.91
2022-12-12T05:55:23.599Z,-0.84
2022-12-12T06:05:51.229Z,-0.86
2022-12-12T06:16:21.271Z,-0.94
2022-12-12T06:26:48.791Z,-0.97
2022-12-12T06:37:17.476Z,-0.96
2022-12-12T06:47:45.248Z,-0.77
2022-12-12T06:58:12.823Z,-0.74
2022-12-12T07:08:40.623Z,-0.75
2022-12-12T07:19:08.327Z,-0.81
2022-12-12T07:29:36.452Z,-0.81
2022-12-12T07:40:04.005Z,-0.71
2022-12-12T07:50:31.532Z,-0.54
2022-12-12T08:00:59.016Z,-0.46
2022-12-12T08:11:27.146Z,-0.41
2022-12-12T08:21:55.541Z,-0.42
2022-12-12T08:32:23.138Z,-0.45
2022-12-12T08:42:50.616Z,-0.44
2022-12-12T08:53:18.025Z,-0.44
2022-12-12T09:03:45.718Z,-0.41
2022-12-12T09:14:13.419Z,-0.43
2022-12-12T09:24:41.078Z,-0.31
2022-12-12T09:35:09.571Z,-0.21
2022-12-12T09:45:39.190Z,0.20
2022-12-12T09:56:12.115Z,0.38
2022-12-12T10:06:47.108Z,0.30
2022-12-12T10:17:19.440Z,0.28
2022-12-12T10:27:47.435Z,0.35
2022-12-12T10:38:33.454Z,0.35
2022-12-12T10:49:01.189Z,0.31
2022-12-12T10:59:28.811Z,0.36
2022-12-12T11:10:01.945Z,0.30
2022-12-12T11:20:30.039Z,0.26
2022-12-12T11:30:58.803Z,0.15
2022-12-12T11:41:24.805Z,0.14
2022-12-12T11:51:53.744Z,0.01
2022-12-12T12:02:57.015Z,-0.09
2022-12-12T12:13:40.840Z,-0.12
2022-12-12T12:24:28.283Z,-0.29
2022-12-12T12:35:08.377Z,-0.14
2022-12-12T12:45:46.371Z,-0.05
2022-12-12T12:56:26.018Z,0.01
2022-12-12T13:07:00.133Z,0.02
2022-12-12T13:17:40.256Z,0.13
2022-12-12T13:28:12.165Z,0.07
2022-12-12T13:38:41.156Z,0.07
2022-12-12T13:49:29.297Z,0.23
2022-12-12T14:00:23.631Z,0.08
2022-12-12T14:10:59.432Z,0.05
2022-12-12T14:21:41.978Z,0.00
2022-12-12T14:32:37.171Z,-0.07
2022-12-12T14:43:20.865Z,-0.07
2022-12-12T14:53:52.848Z,0.05
2022-12-12T15:04:22.378Z,0.08
2022-12-12T15:14:58.104Z,0.09
2022-12-12T15:25:27.983Z,0.10
2022-12-12T15:36:01.882Z,0.45
2022-12-12T15:46:31.609Z,0.65
2022-12-12T15:56:59.086Z,0.72
2022-12-12T16:07:26.832Z,0.73
2022-12-12T16:18:06.864Z,0.79
2022-12-12T16:28:34.493Z,0.68
2022-12-12T16:39:01.895Z,0.50
2022-12-12T16:49:29.652Z,0.49
2022-12-12T16:59:57.084Z,0.32
2022-12-12T17:10:26.760Z,0.31
2022-12-12T17:20:54.261Z,0.27
2022-12-12T17:31:21.941Z,0.22
2022-12-12T17:41:49.358Z,0.12
2022-12-12T17:52:16.929Z,-0.02
2022-12-12T18:02:44.587Z,-0.03
2022-12-12T18:13:12.071Z,-0.01
2022-12-12T18:23:39.556Z,-0.06
2022-12-12T18:34:08.427Z,-0.01
2022-12-12T18:44:36.249Z,-0.04
2022-12-12T18:55:04.049Z,-0.06
2022-12-12T19:05:31.425Z,-0.18
2022-12-12T19:16:03.631Z,-0.18
2022-12-12T19:26:32.200Z,-0.18
2022-12-12T19:36:59.568Z,-0.18
2022-12-12T19:47:27.518Z,-0.24
2022-12-12T19:57:54.907Z,-0.32
2022-12-12T20:08:22.468Z,-0.33
2022-12-12T20:18:50.712Z,-0.36
2022-12-12T20:29:18.484Z,-0.52
2022-12-12T20:39:45.945Z,-0.60
2022-12-12T20:50:14.042Z,-0.66
2022-12-12T21:00:41.931Z,-0.65
2022-12-12T21:11:09.768Z,-0.64
2022-12-12T21:21:37.354Z,-0.66
2022-12-12T21:32:04.847Z,-0.67
2022-12-12T21:42:32.448Z,-0.75
2022-12-12T21:53:17.563Z,-0.76
2022-12-12T22:03:45.662Z,-0.72
2022-12-12T22:14:13.493Z,-0.71
2022-12-12T22:24:41.062Z,-0.77
2022-12-12T22:35:09.973Z,-0.83
2022-12-12T22:45:38.241Z,-1.01
2022-12-12T22:56:05.748Z,-1.20
2022-12-12T23:06:34.992Z,-1.27
2022-12-12T23:17:02.404Z,-1.35
2022-12-12T23:27:29.889Z,-1.40
2022-12-12T23:37:57.323Z,-1.48
2022-12-12T23:48:24.835Z,-1.54
2022-12-12T23:58:52.491Z,-1.55
